createdAt,value
2022-07-26T00:01:19.091Z,20.34
2022-07-26T00:03:46.833Z,20.36
2022-07-26T00:06:14.571Z,20.37
2022-07-26T00:08:42.519Z,20.38
2022-07-26T00:11:10.467Z,20.39
2022-07-26T00:13:38.105Z,20.41
2022-07-26T00:16:05.944Z,20.41
2022-07-26T00:18:34.033Z,20.42
2022-07-26T00:21:01.725Z,20.42
2022-07-26T00:23:34.221Z,20.43
2022-07-26T00:28:55.573Z,20.43
2022-07-26T00:31:23.446Z,20.44
2022-07-26T00:33:51.139Z,20.44
2022-07-26T00:36:18.808Z,20.45
2022-07-26T00:38:46.930Z,20.44
2022-07-26T00:41:14.656Z,20.44
2022-07-26T00:43:42.412Z,20.43
2022-07-26T00:46:10.132Z,20.43
2022-07-26T00:48:38.388Z,20.41
2022-07-26T00:51:06.099Z,20.39
2022-07-26T00:53:33.791Z,20.37
2022-07-26T00:56:01.579Z,20.36
2022-07-26T00:58:29.647Z,20.36
2022-07-26T01:00:57.402Z,20.34
2022-07-26T01:03:25.081Z,20.30
2022-07-26T01:05:58.156Z,20.26
2022-07-26T01:08:26.281Z,20.20
2022-07-26T01:10:54.012Z,20.13
2022-07-26T01:13:21.714Z,20.04
2022-07-26T01:15:49.393Z,19.97
2022-07-26T01:18:17.510Z,19.90
2022-07-26T01:20:45.162Z,19.83
2022-07-26T01:23:12.813Z,19.76
2022-07-26T01:25:43.410Z,19.70
2022-07-26T01:28:11.762Z,19.64
2022-07-26T01:30:47.939Z,19.58
2022-07-26T01:33:15.818Z,19.52
2022-07-26T01:35:43.610Z,19.47
2022-07-26T01:38:11.668Z,19.42
2022-07-26T01:40:39.371Z,19.38
2022-07-26T01:43:07.051Z,19.34
2022-07-26T01:45:34.871Z,19.29
2022-07-26T01:48:02.915Z,19.24
2022-07-26T01:50:30.673Z,19.18
2022-07-26T01:52:58.329Z,19.12
2022-07-26T01:55:26.075Z,19.08
2022-07-26T01:57:55.144Z,19.02
2022-07-26T02:00:22.744Z,18.97
2022-07-26T02:02:50.461Z,18.94
2022-07-26T02:05:18.312Z,18.91
2022-07-26T02:07:45.984Z,18.86
2022-07-26T02:10:13.653Z,18.85
2022-07-26T02:12:42.281Z,18.85
2022-07-26T02:15:11.319Z,18.86
2022-07-26T02:17:39.084Z,18.88
2022-07-26T02:20:06.888Z,18.92
2022-07-26T02:22:34.624Z,18.94
2022-07-26T02:25:05.264Z,18.96
2022-07-26T02:27:33.471Z,18.99
2022-07-26T02:30:02.206Z,19.02
2022-07-26T02:32:29.926Z,19.08
2022-07-26T02:34:57.597Z,19.10
2022-07-26T02:37:26.868Z,19.12
2022-07-26T02:39:54.601Z,19.13
2022-07-26T02:42:22.273Z,19.15
2022-07-26T02:44:49.957Z,19.15
2022-07-26T02:47:18.323Z,19.17
2022-07-26T02:49:46.033Z,19.20
2022-07-26T02:52:13.665Z,19.20
2022-07-26T02:54:41.494Z,19.22
2022-07-26T02:57:09.526Z,19.23
2022-07-26T02:59:37.209Z,19.25
2022-07-26T03:02:04.912Z,19.27
2022-07-26T03:04:32.672Z,19.27
2022-07-26T03:07:01.919Z,19.28
2022-07-26T03:09:30.134Z,19.26
2022-07-26T03:11:57.795Z,19.26
2022-07-26T03:14:25.434Z,19.25
2022-07-26T03:16:55.696Z,19.24
2022-07-26T03:19:23.689Z,19.23
2022-07-26T03:21:51.388Z,19.23
2022-07-26T03:24:19.134Z,19.23
2022-07-26T03:26:47.481Z,19.24
2022-07-26T03:29:15.104Z,19.26
2022-07-26T03:31:42.791Z,19.27
2022-07-26T03:34:11.011Z,19.28
2022-07-26T03:36:39.242Z,19.28
2022-07-26T03:39:06.866Z,19.29
2022-07-26T03:41:34.577Z,19.29
2022-07-26T03:44:02.336Z,19.31
2022-07-26T03:46:30.475Z,19.32
2022-07-26T03:48:58.365Z,19.34
2022-07-26T03:51:26.423Z,19.35
2022-07-26T03:53:54.099Z,19.36
2022-07-26T03:56:32.890Z,19.37
2022-07-26T03:58:59.490Z,19.37
2022-07-26T04:01:27.239Z,19.34
2022-07-26T04:03:54.964Z,19.30
2022-07-26T04:06:23.232Z,19.12
2022-07-26T04:08:53.423Z,18.79
2022-07-26T04:11:21.199Z,18.52
2022-07-26T04:13:49.359Z,18.33
2022-07-26T04:16:17.120Z,18.29
2022-07-26T04:18:45.280Z,18.33
2022-07-26T04:21:12.965Z,18.38
2022-07-26T04:23:40.736Z,18.43
2022-07-26T04:26:08.488Z,18.46
2022-07-26T04:28:36.600Z,18.48
2022-07-26T04:31:04.570Z,18.49
2022-07-26T04:33:33.246Z,18.51
2022-07-26T04:36:00.861Z,18.52
2022-07-26T04:38:28.920Z,18.52
2022-07-26T04:40:58.144Z,18.47
2022-07-26T04:43:25.897Z,18.41
2022-07-26T04:45:53.598Z,18.40
2022-07-26T04:48:21.364Z,18.40
2022-07-26T04:50:49.019Z,18.34
2022-07-26T04:53:17.084Z,18.14
2022-07-26T04:55:44.691Z,18.05
2022-07-26T04:58:12.485Z,17.95
2022-07-26T05:01:09.061Z,17.84
2022-07-26T05:03:27.810Z,17.78
2022-07-26T05:05:55.468Z,17.76
2022-07-26T05:08:23.582Z,17.76
2022-07-26T05:10:55.594Z,17.80
2022-07-26T05:13:30.569Z,17.73
2022-07-26T05:15:58.683Z,17.60
2022-07-26T05:18:26.714Z,17.53
2022-07-26T05:20:54.572Z,17.49
2022-07-26T05:23:22.211Z,17.44
2022-07-26T05:25:49.917Z,17.41
2022-07-26T05:28:18.112Z,17.39
2022-07-26T05:30:45.827Z,17.40
2022-07-26T05:33:16.431Z,17.40
2022-07-26T05:35:44.849Z,17.40
2022-07-26T05:38:12.846Z,17.45
2022-07-26T05:40:40.591Z,17.51
2022-07-26T05:43:08.267Z,17.60
2022-07-26T05:45:36.100Z,17.68
2022-07-26T05:48:05.421Z,17.75
2022-07-26T05:50:33.243Z,17.81
2022-07-26T05:53:00.849Z,17.89
2022-07-26T05:55:28.479Z,17.96
2022-07-26T05:57:56.709Z,18.03
2022-07-26T06:00:24.503Z,18.09
2022-07-26T06:02:52.288Z,18.15
2022-07-26T06:05:20.034Z,18.21
2022-07-26T06:07:48.070Z,18.24
2022-07-26T06:10:15.730Z,18.31
2022-07-26T06:12:43.407Z,18.39
2022-07-26T06:15:14.870Z,18.46
2022-07-26T06:17:44.026Z,18.55
2022-07-26T06:20:12.082Z,18.63
2022-07-26T06:22:39.878Z,18.74
2022-07-26T06:25:07.523Z,18.86
2022-07-26T06:27:35.528Z,18.94
2022-07-26T06:30:03.294Z,19.00
2022-07-26T06:32:31.447Z,19.07
2022-07-26T06:34:59.157Z,19.11
2022-07-26T06:37:27.208Z,19.14
2022-07-26T06:39:54.983Z,19.14
2022-07-26T06:42:22.651Z,19.15
2022-07-26T06:44:50.423Z,19.19
2022-07-26T06:47:18.546Z,19.20
2022-07-26T06:49:46.203Z,19.23
2022-07-26T06:52:13.887Z,19.27
2022-07-26T06:54:41.649Z,19.30
2022-07-26T06:57:09.758Z,19.29
2022-07-26T06:59:37.400Z,19.35
2022-07-26T07:02:05.133Z,19.41
2022-07-26T07:04:32.868Z,19.45
2022-07-26T07:07:05.143Z,19.46
2022-07-26T07:09:33.910Z,19.43
2022-07-26T07:12:09.424Z,19.46
2022-07-26T07:14:37.917Z,19.49
2022-07-26T07:17:12.196Z,19.55
2022-07-26T07:19:41.966Z,19.72
2022-07-26T07:22:12.529Z,19.91
2022-07-26T07:24:40.555Z,20.13
2022-07-26T07:27:08.324Z,20.25
2022-07-26T07:29:35.970Z,20.42
2022-07-26T07:32:03.946Z,20.52
2022-07-26T07:34:31.706Z,20.62
2022-07-26T07:37:01.000Z,20.70
2022-07-26T07:39:34.889Z,20.72
2022-07-26T07:42:06.544Z,20.76
2022-07-26T07:44:34.679Z,20.84
2022-07-26T07:47:02.924Z,20.92
2022-07-26T07:49:30.826Z,21.01
2022-07-26T07:51:58.639Z,21.08
2022-07-26T07:54:26.929Z,21.15
2022-07-26T07:56:56.493Z,21.23
2022-07-26T07:59:24.460Z,21.30
2022-07-26T08:01:52.365Z,21.31
2022-07-26T08:04:20.212Z,21.41
2022-07-26T08:06:51.060Z,21.43
2022-07-26T08:09:19.237Z,21.50
2022-07-26T08:11:50.861Z,21.59
2022-07-26T08:14:18.927Z,21.55
2022-07-26T08:16:47.721Z,21.62
2022-07-26T08:19:16.096Z,21.61
2022-07-26T08:21:46.893Z,21.62
2022-07-26T08:24:14.860Z,21.69
2022-07-26T08:26:42.929Z,21.77
2022-07-26T08:29:10.849Z,21.78
2022-07-26T08:31:53.020Z,21.76
2022-07-26T08:34:22.106Z,21.83
2022-07-26T08:37:15.382Z,21.98
2022-07-26T08:39:37.871Z,22.20
2022-07-26T08:42:05.684Z,22.35
2022-07-26T08:44:33.901Z,22.48
2022-07-26T08:47:01.666Z,22.62
2022-07-26T08:49:29.478Z,22.75
2022-07-26T08:51:59.386Z,22.80
2022-07-26T08:54:28.124Z,22.93
2022-07-26T08:56:55.866Z,23.07
2022-07-26T08:59:24.370Z,23.32
2022-07-26T09:01:52.375Z,23.60
2022-07-26T09:04:31.118Z,23.60
2022-07-26T09:07:00.123Z,23.51
2022-07-26T09:09:27.989Z,23.65
2022-07-26T09:11:56.339Z,23.72
2022-07-26T09:14:23.971Z,23.79
2022-07-26T09:16:51.674Z,23.90
2022-07-26T09:19:19.718Z,23.89
2022-07-26T09:21:47.876Z,23.84
2022-07-26T09:24:15.555Z,23.88
2022-07-26T09:26:43.307Z,24.06
2022-07-26T09:29:11.332Z,24.08
2022-07-26T09:31:39.411Z,24.24
2022-07-26T09:34:07.625Z,24.27
2022-07-26T09:36:35.786Z,24.35
2022-07-26T09:39:03.490Z,24.41
2022-07-26T09:41:31.220Z,24.38
2022-07-26T09:44:00.818Z,24.21
2022-07-26T09:46:28.570Z,23.91
2022-07-26T09:49:12.469Z,23.68
2022-07-26T09:51:40.363Z,23.42
2022-07-26T09:54:09.981Z,23.25
2022-07-26T09:56:37.971Z,23.16
2022-07-26T09:59:05.790Z,23.14
2022-07-26T10:01:33.468Z,23.19
2022-07-26T10:04:01.270Z,23.21
2022-07-26T10:06:30.648Z,23.20
2022-07-26T10:08:58.909Z,23.11
2022-07-26T10:11:26.567Z,23.09
2022-07-26T10:13:54.325Z,23.31
2022-07-26T10:16:22.521Z,24.08
2022-07-26T10:18:50.517Z,24.75
2022-07-26T10:21:18.713Z,24.76
2022-07-26T10:23:46.564Z,24.94
2022-07-26T10:26:14.623Z,25.25
2022-07-26T10:28:43.146Z,25.29
2022-07-26T10:31:10.922Z,25.24
2022-07-26T10:33:38.667Z,25.00
2022-07-26T10:36:06.453Z,24.67
2022-07-26T10:38:34.651Z,24.44
2022-07-26T10:41:02.327Z,24.27
2022-07-26T10:43:40.567Z,24.13
2022-07-26T10:46:09.087Z,23.99
2022-07-26T10:48:37.221Z,23.92
2022-07-26T10:51:06.470Z,23.90
2022-07-26T10:53:34.333Z,23.91
2022-07-26T10:56:03.370Z,24.05
2022-07-26T10:58:31.521Z,24.84
2022-07-26T11:01:00.079Z,25.86
2022-07-26T11:03:27.884Z,26.99
2022-07-26T11:05:55.608Z,27.90
2022-07-26T11:08:24.861Z,28.42
2022-07-26T11:10:52.651Z,28.57
2022-07-26T11:13:20.347Z,28.58
2022-07-26T11:15:48.116Z,28.34
2022-07-26T11:18:16.273Z,27.84
2022-07-26T11:20:43.937Z,27.21
2022-07-26T11:23:11.728Z,26.46
2022-07-26T11:25:39.470Z,25.67
2022-07-26T11:28:08.301Z,24.97
2022-07-26T11:30:36.191Z,24.40
2022-07-26T11:33:05.540Z,23.92
2022-07-26T11:35:33.285Z,23.53
2022-07-26T11:38:11.371Z,23.20
2022-07-26T11:40:40.002Z,22.93
2022-07-26T11:43:07.707Z,22.71
2022-07-26T11:45:35.340Z,22.54
2022-07-26T11:48:03.342Z,22.39
2022-07-26T11:50:31.262Z,22.31
2022-07-26T11:52:58.989Z,22.28
2022-07-26T11:55:26.836Z,22.30
2022-07-26T11:57:54.555Z,22.32
2022-07-26T12:00:22.340Z,22.30
2022-07-26T12:02:55.500Z,22.32
2022-07-26T12:05:23.962Z,22.35
2022-07-26T12:07:53.177Z,22.33
2022-07-26T12:10:20.913Z,22.36
2022-07-26T12:12:48.543Z,22.42
2022-07-26T12:15:16.877Z,22.41
2022-07-26T12:17:44.922Z,22.43
2022-07-26T12:20:12.649Z,22.48
2022-07-26T12:22:40.436Z,22.43
2022-07-26T12:25:08.120Z,22.37
2022-07-26T12:27:36.106Z,22.42
2022-07-26T12:30:03.919Z,22.63
2022-07-26T12:32:31.618Z,22.96
2022-07-26T12:34:59.368Z,23.13
2022-07-26T12:37:39.554Z,23.15
2022-07-26T12:40:08.293Z,23.24
2022-07-26T12:42:36.584Z,23.30
2022-07-26T12:45:04.626Z,23.51
2022-07-26T12:47:32.314Z,24.33
2022-07-26T12:50:00.835Z,24.98
2022-07-26T12:52:28.495Z,25.62
2022-07-26T12:54:56.276Z,26.53
2022-07-26T12:57:24.568Z,27.01
2022-07-26T12:59:52.260Z,27.63
2022-07-26T13:02:19.993Z,28.38
2022-07-26T13:04:47.814Z,28.83
2022-07-26T13:07:15.922Z,28.97
2022-07-26T13:09:43.641Z,28.80
2022-07-26T13:12:11.347Z,28.56
2022-07-26T13:14:39.144Z,28.25
2022-07-26T13:17:07.065Z,28.84
2022-07-26T13:19:34.934Z,29.63
2022-07-26T13:22:02.620Z,30.10
2022-07-26T13:24:30.864Z,30.87
2022-07-26T13:26:58.614Z,31.04
2022-07-26T13:29:28.218Z,30.89
2022-07-26T13:31:56.463Z,30.87
2022-07-26T13:34:24.367Z,30.21
2022-07-26T13:36:52.543Z,29.34
2022-07-26T13:39:20.255Z,28.59
2022-07-26T13:41:48.062Z,27.92
2022-07-26T13:44:15.807Z,27.77
2022-07-26T13:46:43.932Z,27.52
2022-07-26T13:49:12.723Z,27.24
2022-07-26T13:51:59.060Z,26.86
2022-07-26T13:54:27.375Z,26.34
2022-07-26T13:56:55.132Z,25.89
2022-07-26T13:59:22.908Z,25.58
2022-07-26T14:01:50.783Z,25.41
2022-07-26T14:04:18.636Z,25.23
2022-07-26T14:06:46.785Z,25.00
2022-07-26T14:09:14.421Z,24.91
2022-07-26T14:11:42.160Z,25.13
2022-07-26T14:14:10.080Z,25.29
2022-07-26T14:16:39.229Z,25.46
2022-07-26T14:19:07.096Z,26.22
2022-07-26T14:21:43.636Z,26.35
2022-07-26T14:24:22.527Z,26.20
2022-07-26T14:26:54.192Z,26.09
2022-07-26T14:29:24.474Z,26.27
2022-07-26T14:31:52.513Z,26.64
2022-07-26T14:34:20.303Z,27.26
2022-07-26T14:36:48.539Z,27.16
2022-07-26T14:39:16.223Z,27.68
2022-07-26T14:41:44.008Z,28.38
2022-07-26T14:44:13.208Z,28.19
2022-07-26T14:46:43.972Z,28.04
2022-07-26T14:49:11.745Z,28.15
2022-07-26T14:51:39.681Z,28.52
2022-07-26T14:54:07.860Z,28.70
2022-07-26T14:56:38.119Z,28.38
2022-07-26T14:59:05.941Z,28.20
2022-07-26T15:01:33.883Z,27.67
2022-07-26T15:04:01.604Z,27.16
2022-07-26T15:06:29.442Z,26.79
2022-07-26T15:08:58.405Z,26.39
2022-07-26T15:11:26.064Z,26.00
2022-07-26T15:13:54.710Z,25.58
2022-07-26T15:16:22.585Z,25.24
2022-07-26T15:18:50.615Z,24.85
2022-07-26T15:21:18.258Z,24.48
2022-07-26T15:23:45.964Z,24.14
2022-07-26T15:26:14.292Z,23.86
2022-07-26T15:28:42.032Z,23.74
2022-07-26T15:31:09.658Z,23.75
2022-07-26T15:33:37.636Z,23.73
2022-07-26T15:36:06.052Z,23.77
2022-07-26T15:38:34.234Z,23.78
2022-07-26T15:41:01.990Z,23.81
2022-07-26T15:43:48.250Z,23.83
2022-07-26T15:46:17.329Z,23.80
2022-07-26T15:48:46.625Z,23.70
2022-07-26T15:51:14.378Z,23.64
2022-07-26T15:53:46.299Z,23.57
2022-07-26T15:56:14.890Z,23.52
2022-07-26T15:58:42.658Z,23.40
2022-07-26T16:01:12.730Z,23.26
2022-07-26T16:03:40.530Z,23.16
2022-07-26T16:06:08.500Z,23.05
2022-07-26T16:08:52.474Z,22.95
2022-07-26T16:11:24.421Z,22.86
2022-07-26T16:13:52.158Z,22.81
2022-07-26T16:16:29.845Z,22.78
2022-07-26T16:18:57.759Z,22.72
2022-07-26T16:21:25.389Z,22.65
2022-07-26T16:23:53.514Z,22.57
2022-07-26T16:26:21.210Z,22.48
2022-07-26T16:28:48.956Z,22.41
2022-07-26T16:31:16.772Z,22.34
2022-07-26T16:33:46.551Z,22.32
2022-07-26T16:36:15.411Z,22.26
2022-07-26T16:38:43.100Z,22.26
2022-07-26T16:41:10.876Z,22.28
2022-07-26T16:43:38.589Z,22.30
2022-07-26T16:46:06.603Z,22.30
2022-07-26T16:48:34.374Z,22.34
2022-07-26T16:51:02.146Z,22.39
2022-07-26T16:53:30.023Z,22.46
2022-07-26T16:55:57.746Z,22.51
2022-07-26T16:58:25.391Z,22.53
2022-07-26T17:00:53.248Z,22.51
2022-07-26T17:03:20.966Z,22.46
2022-07-26T17:05:48.681Z,22.39
2022-07-26T17:08:17.043Z,22.27
2022-07-26T17:10:44.756Z,22.18
2022-07-26T17:13:12.516Z,22.06
2022-07-26T17:15:40.226Z,21.95
2022-07-26T17:18:08.315Z,21.88
2022-07-26T17:20:36.202Z,21.86
2022-07-26T17:23:04.038Z,21.83
2022-07-26T17:25:31.868Z,21.81
2022-07-26T17:27:59.909Z,21.77
2022-07-26T17:30:27.682Z,21.71
2022-07-26T17:32:55.406Z,21.62
2022-07-26T17:35:23.228Z,21.57
2022-07-26T17:37:55.676Z,21.53
2022-07-26T17:40:25.893Z,21.47
2022-07-26T17:42:54.736Z,21.39
2022-07-26T17:45:22.436Z,21.35
2022-07-26T17:47:50.101Z,21.35
2022-07-26T17:53:05.516Z,21.35
2022-07-26T17:55:33.262Z,21.35
2022-07-26T17:58:00.914Z,21.35
2022-07-26T18:00:29.303Z,21.30
2022-07-26T18:02:57.175Z,21.27
2022-07-26T18:05:30.341Z,21.25
2022-07-26T18:08:02.403Z,21.21
2022-07-26T18:10:30.250Z,21.18
2022-07-26T18:12:58.361Z,21.13
2022-07-26T18:15:26.338Z,21.09
2022-07-26T18:17:54.086Z,21.07
2022-07-26T18:20:21.801Z,21.02
2022-07-26T18:22:53.886Z,20.99
2022-07-26T18:25:21.565Z,20.96
2022-07-26T18:27:50.056Z,20.96
2022-07-26T18:30:17.788Z,20.95
2022-07-26T18:32:45.563Z,20.92
2022-07-26T18:35:13.413Z,20.88
2022-07-26T18:37:41.644Z,20.86
2022-07-26T18:40:09.358Z,20.83
2022-07-26T18:42:38.007Z,20.80
2022-07-26T18:45:05.820Z,20.78
2022-07-26T18:47:33.876Z,20.77
2022-07-26T18:50:01.643Z,20.71
2022-07-26T18:52:31.976Z,20.69
2022-07-26T18:55:01.152Z,20.63
2022-07-26T18:57:29.212Z,20.58
2022-07-26T18:59:56.936Z,20.54
2022-07-26T19:02:24.580Z,20.48
2022-07-26T19:04:52.358Z,20.46
2022-07-26T19:07:20.446Z,20.41
2022-07-26T19:09:48.168Z,20.35
2022-07-26T19:12:15.931Z,20.29
2022-07-26T19:14:43.808Z,20.26
2022-07-26T19:17:11.892Z,20.23
2022-07-26T19:19:39.679Z,20.22
2022-07-26T19:22:07.471Z,20.18
2022-07-26T19:24:35.288Z,20.17
2022-07-26T19:27:03.457Z,20.15
2022-07-26T19:29:31.175Z,20.12
2022-07-26T19:31:58.924Z,20.09
2022-07-26T19:34:27.006Z,20.06
2022-07-26T19:36:55.139Z,20.04
2022-07-26T19:39:22.892Z,20.03
2022-07-26T19:41:50.678Z,20.03
2022-07-26T19:44:18.404Z,20.03
2022-07-26T19:46:47.611Z,20.02
2022-07-26T19:49:17.325Z,20.04
2022-07-26T19:51:45.156Z,20.01
2022-07-26T19:54:13.136Z,20.01
2022-07-26T19:56:41.980Z,20.00
2022-07-26T19:59:10.003Z,20.00
2022-07-26T20:01:38.025Z,19.98
2022-07-26T20:04:05.811Z,20.00
2022-07-26T20:06:33.527Z,19.97
2022-07-26T20:09:01.720Z,19.95
2022-07-26T20:11:29.487Z,19.94
2022-07-26T20:13:57.200Z,19.96
2022-07-26T20:16:24.970Z,19.94
2022-07-26T20:18:52.861Z,19.92
2022-07-26T20:21:20.677Z,19.87
2022-07-26T20:23:48.371Z,19.85
2022-07-26T20:26:16.929Z,19.83
2022-07-26T20:28:44.843Z,19.82
2022-07-26T20:31:12.638Z,19.83
2022-07-26T20:33:40.315Z,19.82
2022-07-26T20:36:08.096Z,19.83
2022-07-26T20:38:36.251Z,19.85
2022-07-26T20:41:04.816Z,19.86
2022-07-26T20:43:33.764Z,19.87
2022-07-26T20:46:02.373Z,19.85
2022-07-26T20:48:31.303Z,19.84
2022-07-26T20:50:59.031Z,19.85
2022-07-26T20:53:26.865Z,19.84
2022-07-26T20:55:54.573Z,19.83
2022-07-26T20:58:22.731Z,19.82
2022-07-26T21:00:50.554Z,19.82
2022-07-26T21:03:18.295Z,19.84
2022-07-26T21:05:46.022Z,19.83
2022-07-26T21:08:14.349Z,19.80
2022-07-26T21:10:42.171Z,19.79
2022-07-26T21:13:10.094Z,19.75
2022-07-26T21:15:38.125Z,19.72
2022-07-26T21:18:06.538Z,19.72
2022-07-26T21:20:35.173Z,19.70
2022-07-26T21:23:15.899Z,19.68
2022-07-26T21:25:44.746Z,19.64
2022-07-26T21:28:12.894Z,19.63
2022-07-26T21:30:40.610Z,19.62
2022-07-26T21:33:08.327Z,19.59
2022-07-26T21:35:35.966Z,19.59
2022-07-26T21:38:04.490Z,19.58
2022-07-26T21:40:32.208Z,19.55
2022-07-26T21:42:59.893Z,19.51
2022-07-26T21:45:27.791Z,19.50
2022-07-26T21:47:55.940Z,19.49
2022-07-26T21:50:23.703Z,19.48
2022-07-26T21:52:51.439Z,19.47
2022-07-26T21:55:19.189Z,19.42
2022-07-26T21:57:47.304Z,19.38
2022-07-26T22:00:15.111Z,19.35
2022-07-26T22:02:42.934Z,19.29
2022-07-26T22:05:24.930Z,19.26
2022-07-26T22:07:52.554Z,19.21
2022-07-26T22:10:20.257Z,19.17
2022-07-26T22:12:48.108Z,19.14
2022-07-26T22:15:16.183Z,19.13
2022-07-26T22:17:43.955Z,19.10
2022-07-26T22:20:11.741Z,19.08
2022-07-26T22:22:39.542Z,19.06
2022-07-26T22:25:07.734Z,19.05
2022-07-26T22:27:35.611Z,19.05
2022-07-26T22:30:05.773Z,19.01
2022-07-26T22:32:33.527Z,18.98
2022-07-26T22:35:01.470Z,18.93
2022-07-26T22:37:30.065Z,18.90
2022-07-26T22:39:57.799Z,18.89
2022-07-26T22:42:25.484Z,18.86
2022-07-26T22:44:53.200Z,18.86
2022-07-26T22:47:20.831Z,18.85
2022-07-26T22:49:48.544Z,18.83
2022-07-26T22:52:16.303Z,18.81
2022-07-26T22:54:44.425Z,18.79
2022-07-26T22:57:12.068Z,18.80
2022-07-26T22:59:39.786Z,18.78
2022-07-26T23:02:07.479Z,18.77
2022-07-26T23:04:35.200Z,18.77
2022-07-26T23:07:04.632Z,18.76
2022-07-26T23:09:32.335Z,18.75
2022-07-26T23:11:59.939Z,18.73
2022-07-26T23:14:27.661Z,18.70
2022-07-26T23:16:55.754Z,18.71
2022-07-26T23:19:23.547Z,18.69
2022-07-26T23:21:51.232Z,18.65
2022-07-26T23:24:18.980Z,18.58
2022-07-26T23:26:47.036Z,18.51
2022-07-26T23:29:15.096Z,18.44
2022-07-26T23:31:43.542Z,18.39
2022-07-26T23:34:11.209Z,18.36
2022-07-26T23:36:41.200Z,18.29
2022-07-26T23:39:09.141Z,18.25
2022-07-26T23:41:37.166Z,18.23
2022-07-26T23:44:04.805Z,18.21
2022-07-26T23:46:32.704Z,18.17
2022-07-26T23:49:00.500Z,18.13
2022-07-26T23:51:28.545Z,18.09
2022-07-26T23:53:56.234Z,18.06
2022-07-26T23:56:23.925Z,18.02
2022-07-26T23:58:51.561Z,17.99
